sensor_id;sensor_type;location;lat;lon;timestamp;temperature;humidity
420;DHT22;42600;54.408;13.016;2023-02-26T00:01:16;0.90;84.00
420;DHT22;42600;54.408;13.016;2023-02-26T00:03:47;0.90;83.70
420;DHT22;42600;54.408;13.016;2023-02-26T00:06:14;0.90;84.00
420;DHT22;42600;54.408;13.016;2023-02-26T00:08:41;0.90;84.20
420;DHT22;42600;54.408;13.016;2023-02-26T00:11:09;0.90;84.10
420;DHT22;42600;54.408;13.016;2023-02-26T00:13:37;0.90;83.70
420;DHT22;42600;54.408;13.016;2023-02-26T00:16:12;0.90;83.70
420;DHT22;42600;54.408;13.016;2023-02-26T00:18:39;0.90;84.00
420;DHT22;42600;54.408;13.016;2023-02-26T00:21:07;0.80;83.80
420;DHT22;42600;54.408;13.016;2023-02-26T00:23:41;0.80;84.00
420;DHT22;42600;54.408;13.016;2023-02-26T00:26:08;0.80;84.30
420;DHT22;42600;54.408;13.016;2023-02-26T00:28:35;0.80;83.90
420;DHT22;42600;54.408;13.016;2023-02-26T00:31:02;0.80;83.50
420;DHT22;42600;54.408;13.016;2023-02-26T00:33:29;0.70;83.70
420;DHT22;42600;54.408;13.016;2023-02-26T00:36:02;0.80;83.90
420;DHT22;42600;54.408;13.016;2023-02-26T00:38:35;0.80;84.00
420;DHT22;42600;54.408;13.016;2023-02-26T00:41:05;0.80;83.70
420;DHT22;42600;54.408;13.016;2023-02-26T00:43:33;0.80;83.50
420;DHT22;42600;54.408;13.016;2023-02-26T00:46:04;0.80;83.60
420;DHT22;42600;54.408;13.016;2023-02-26T00:48:43;0.80;83.30
420;DHT22;42600;54.408;13.016;2023-02-26T00:51:20;0.80;83.50
420;DHT22;42600;54.408;13.016;2023-02-26T00:53:53;0.80;83.70
420;DHT22;42600;54.408;13.016;2023-02-26T00:56:26;0.80;84.20
420;DHT22;42600;54.408;13.016;2023-02-26T00:58:52;0.80;83.60
420;DHT22;42600;54.408;13.016;2023-02-26T01:01:19;0.80;83.40
420;DHT22;42600;54.408;13.016;2023-02-26T01:03:46;0.80;83.60
420;DHT22;42600;54.408;13.016;2023-02-26T01:06:16;0.80;83.70
420;DHT22;42600;54.408;13.016;2023-02-26T01:08:48;0.80;84.00
420;DHT22;42600;54.408;13.016;2023-02-26T01:11:17;0.70;84.60
420;DHT22;42600;54.408;13.016;2023-02-26T01:13:46;0.70;84.70
420;DHT22;42600;54.408;13.016;2023-02-26T01:16:18;0.70;84.30
420;DHT22;42600;54.408;13.016;2023-02-26T01:18:50;0.70;84.10
420;DHT22;42600;54.408;13.016;2023-02-26T01:21:21;0.70;84.20
420;DHT22;42600;54.408;13.016;2023-02-26T01:23:50;0.70;83.90
420;DHT22;42600;54.408;13.016;2023-02-26T01:26:20;0.70;83.60
420;DHT22;42600;54.408;13.016;2023-02-26T01:28:49;0.60;83.60
420;DHT22;42600;54.408;13.016;2023-02-26T01:31:28;0.60;84.00
420;DHT22;42600;54.408;13.016;2023-02-26T01:33:59;0.50;84.10
420;DHT22;42600;54.408;13.016;2023-02-26T01:36:32;0.50;84.10
420;DHT22;42600;54.408;13.016;2023-02-26T01:39:03;0.50;84.10
420;DHT22;42600;54.408;13.016;2023-02-26T01:41:33;0.40;84.60
420;DHT22;42600;54.408;13.016;2023-02-26T01:44:13;0.40;84.70
420;DHT22;42600;54.408;13.016;2023-02-26T01:46:53;0.40;84.80
420;DHT22;42600;54.408;13.016;2023-02-26T01:49:22;0.40;84.80
420;DHT22;42600;54.408;13.016;2023-02-26T01:51:53;0.40;85.00
420;DHT22;42600;54.408;13.016;2023-02-26T01:54:22;0.40;84.90
420;DHT22;42600;54.408;13.016;2023-02-26T01:56:51;0.30;84.70
420;DHT22;42600;54.408;13.016;2023-02-26T01:59:20;0.40;84.70
420;DHT22;42600;54.408;13.016;2023-02-26T02:01:49;0.30;84.60
420;DHT22;42600;54.408;13.016;2023-02-26T02:04:16;0.30;84.90
420;DHT22;42600;54.408;13.016;2023-02-26T02:06:44;0.30;85.10
420;DHT22;42600;54.408;13.016;2023-02-26T02:09:11;0.30;85.10
420;DHT22;42600;54.408;13.016;2023-02-26T02:11:46;0.20;84.80
420;DHT22;42600;54.408;13.016;2023-02-26T02:14:23;0.20;85.00
420;DHT22;42600;54.408;13.016;2023-02-26T02:16:57;0.20;84.60
420;DHT22;42600;54.408;13.016;2023-02-26T02:19:54;0.20;84.60
420;DHT22;42600;54.408;13.016;2023-02-26T02:22:51;0.20;84.20
420;DHT22;42600;54.408;13.016;2023-02-26T02:25:43;0.20;83.60
420;DHT22;42600;54.408;13.016;2023-02-26T02:28:21;0.20;83.90
420;DHT22;42600;54.408;13.016;2023-02-26T02:31:01;0.10;83.90
420;DHT22;42600;54.408;13.016;2023-02-26T02:33:34;0.10;83.90
420;DHT22;42600;54.408;13.016;2023-02-26T02:36:06;0.10;83.90
420;DHT22;42600;54.408;13.016;2023-02-26T02:38:37;0.10;84.20
420;DHT22;42600;54.408;13.016;2023-02-26T02:41:08;0.10;84.40
420;DHT22;42600;54.408;13.016;2023-02-26T02:43:36;0.10;84.50
420;DHT22;42600;54.408;13.016;2023-02-26T02:46:08;0.10;84.20
420;DHT22;42600;54.408;13.016;2023-02-26T02:48:39;0.20;84.20
420;DHT22;42600;54.408;13.016;2023-02-26T02:51:10;0.20;84.30
420;DHT22;42600;54.408;13.016;2023-02-26T02:53:42;0.10;84.80
420;DHT22;42600;54.408;13.016;2023-02-26T02:56:14;0.10;84.80
420;DHT22;42600;54.408;13.016;2023-02-26T02:58:43;0.10;84.90
420;DHT22;42600;54.408;13.016;2023-02-26T03:01:17;0.10;85.10
420;DHT22;42600;54.408;13.016;2023-02-26T03:03:49;0.00;85.30
420;DHT22;42600;54.408;13.016;2023-02-26T03:06:17;0.00;85.20
420;DHT22;42600;54.408;13.016;2023-02-26T03:08:45;0.00;84.80
420;DHT22;42600;54.408;13.016;2023-02-26T03:11:13;0.10;84.30
420;DHT22;42600;54.408;13.016;2023-02-26T03:13:39;0.10;84.40
420;DHT22;42600;54.408;13.016;2023-02-26T03:16:16;0.10;84.40
420;DHT22;42600;54.408;13.016;2023-02-26T03:18:54;0.00;84.80
420;DHT22;42600;54.408;13.016;2023-02-26T03:21:28;0.00;84.90
420;DHT22;42600;54.408;13.016;2023-02-26T03:23:59;0.00;84.90
420;DHT22;42600;54.408;13.016;2023-02-26T03:26:30;0.00;84.20
420;DHT22;42600;54.408;13.016;2023-02-26T03:29:01;0.00;84.90
420;DHT22;42600;54.408;13.016;2023-02-26T03:31:35;0.00;85.10
420;DHT22;42600;54.408;13.016;2023-02-26T03:34:06;0.00;85.40
420;DHT22;42600;54.408;13.016;2023-02-26T03:36:38;0.00;85.40
420;DHT22;42600;54.408;13.016;2023-02-26T03:39:10;-0.10;85.30
420;DHT22;42600;54.408;13.016;2023-02-26T03:41:41;0.00;85.00
420;DHT22;42600;54.408;13.016;2023-02-26T03:44:12;-0.10;85.30
420;DHT22;42600;54.408;13.016;2023-02-26T03:46:48;-0.10;85.80
420;DHT22;42600;54.408;13.016;2023-02-26T03:49:20;-0.10;85.90
420;DHT22;42600;54.408;13.016;2023-02-26T03:51:50;-0.10;85.80
420;DHT22;42600;54.408;13.016;2023-02-26T03:54:21;-0.10;85.90
420;DHT22;42600;54.408;13.016;2023-02-26T03:56:49;-0.10;85.60
420;DHT22;42600;54.408;13.016;2023-02-26T03:59:16;-0.20;85.40
420;DHT22;42600;54.408;13.016;2023-02-26T04:01:49;-0.10;84.90
420;DHT22;42600;54.408;13.016;2023-02-26T04:04:22;-0.10;84.50
420;DHT22;42600;54.408;13.016;2023-02-26T04:06:51;-0.10;85.10
420;DHT22;42600;54.408;13.016;2023-02-26T04:09:20;-0.10;85.40
420;DHT22;42600;54.408;13.016;2023-02-26T04:11:48;-0.10;85.60
420;DHT22;42600;54.408;13.016;2023-02-26T04:14:15;-0.10;85.70
420;DHT22;42600;54.408;13.016;2023-02-26T04:16:44;-0.10;85.60
420;DHT22;42600;54.408;13.016;2023-02-26T04:19:11;-0.10;85.60
420;DHT22;42600;54.408;13.016;2023-02-26T04:21:38;-0.10;85.60
420;DHT22;42600;54.408;13.016;2023-02-26T04:24:05;-0.20;85.50
420;DHT22;42600;54.408;13.016;2023-02-26T04:26:32;-0.20;85.10
420;DHT22;42600;54.408;13.016;2023-02-26T04:28:58;-0.20;85.40
420;DHT22;42600;54.408;13.016;2023-02-26T04:31:25;-0.20;85.20
420;DHT22;42600;54.408;13.016;2023-02-26T04:33:53;-0.20;85.30
420;DHT22;42600;54.408;13.016;2023-02-26T04:36:20;-0.20;85.30
420;DHT22;42600;54.408;13.016;2023-02-26T04:38:46;-0.20;85.40
420;DHT22;42600;54.408;13.016;2023-02-26T04:41:13;-0.20;85.40
420;DHT22;42600;54.408;13.016;2023-02-26T04:43:40;-0.20;85.20
420;DHT22;42600;54.408;13.016;2023-02-26T04:46:07;-0.20;85.30
420;DHT22;42600;54.408;13.016;2023-02-26T04:48:33;-0.20;85.20
420;DHT22;42600;54.408;13.016;2023-02-26T04:51:01;-0.10;85.30
420;DHT22;42600;54.408;13.016;2023-02-26T04:53:28;-0.10;85.10
420;DHT22;42600;54.408;13.016;2023-02-26T04:55:54;-0.10;85.00
420;DHT22;42600;54.408;13.016;2023-02-26T04:58:21;-0.10;85.10
420;DHT22;42600;54.408;13.016;2023-02-26T05:00:48;-0.20;85.80
420;DHT22;42600;54.408;13.016;2023-02-26T05:03:15;-0.10;85.90
420;DHT22;42600;54.408;13.016;2023-02-26T05:05:42;-0.10;86.00
420;DHT22;42600;54.408;13.016;2023-02-26T05:08:10;-0.10;86.00
420;DHT22;42600;54.408;13.016;2023-02-26T05:10:37;-0.10;85.70
420;DHT22;42600;54.408;13.016;2023-02-26T05:13:03;-0.20;85.70
420;DHT22;42600;54.408;13.016;2023-02-26T05:15:30;-0.20;85.80
420;DHT22;42600;54.408;13.016;2023-02-26T05:17:57;-0.20;85.50
420;DHT22;42600;54.408;13.016;2023-02-26T05:20:24;-0.10;85.80
420;DHT22;42600;54.408;13.016;2023-02-26T05:22:50;-0.20;85.60
420;DHT22;42600;54.408;13.016;2023-02-26T05:25:19;-0.20;85.70
420;DHT22;42600;54.408;13.016;2023-02-26T05:27:45;-0.20;86.00
420;DHT22;42600;54.408;13.016;2023-02-26T05:30:15;-0.20;86.30
420;DHT22;42600;54.408;13.016;2023-02-26T05:32:41;-0.20;86.40
420;DHT22;42600;54.408;13.016;2023-02-26T05:35:09;-0.20;86.30
420;DHT22;42600;54.408;13.016;2023-02-26T05:37:35;-0.30;86.40
420;DHT22;42600;54.408;13.016;2023-02-26T05:40:02;-0.20;86.00
420;DHT22;42600;54.408;13.016;2023-02-26T05:42:30;-0.20;85.80
420;DHT22;42600;54.408;13.016;2023-02-26T05:44:57;-0.20;85.50
420;DHT22;42600;54.408;13.016;2023-02-26T05:47:24;-0.20;85.50
420;DHT22;42600;54.408;13.016;2023-02-26T05:49:50;-0.20;85.90
420;DHT22;42600;54.408;13.016;2023-02-26T05:52:17;-0.30;86.30
420;DHT22;42600;54.408;13.016;2023-02-26T05:54:43;-0.30;86.50
420;DHT22;42600;54.408;13.016;2023-02-26T05:57:10;-0.30;86.80
420;DHT22;42600;54.408;13.016;2023-02-26T05:59:38;-0.30;87.20
420;DHT22;42600;54.408;13.016;2023-02-26T06:02:04;-0.40;87.50
420;DHT22;42600;54.408;13.016;2023-02-26T06:04:31;-0.40;87.70
420;DHT22;42600;54.408;13.016;2023-02-26T06:06:58;-0.40;87.70
420;DHT22;42600;54.408;13.016;2023-02-26T06:09:24;-0.30;87.70
420;DHT22;42600;54.408;13.016;2023-02-26T06:11:51;-0.40;87.70
420;DHT22;42600;54.408;13.016;2023-02-26T06:14:18;-0.30;87.80
420;DHT22;42600;54.408;13.016;2023-02-26T06:16:46;-0.30;88.00
420;DHT22;42600;54.408;13.016;2023-02-26T06:19:12;-0.30;88.10
420;DHT22;42600;54.408;13.016;2023-02-26T06:21:39;-0.30;88.30
420;DHT22;42600;54.408;13.016;2023-02-26T06:24:06;-0.40;88.50
420;DHT22;42600;54.408;13.016;2023-02-26T06:26:33;-0.30;88.10
420;DHT22;42600;54.408;13.016;2023-02-26T06:28:59;-0.30;88.20
420;DHT22;42600;54.408;13.016;2023-02-26T06:31:26;-0.20;87.70
420;DHT22;42600;54.408;13.016;2023-02-26T06:33:54;-0.20;87.20
420;DHT22;42600;54.408;13.016;2023-02-26T06:36:21;-0.10;87.20
420;DHT22;42600;54.408;13.016;2023-02-26T06:38:47;-0.10;87.20
420;DHT22;42600;54.408;13.016;2023-02-26T06:41:14;-0.10;87.30
420;DHT22;42600;54.408;13.016;2023-02-26T06:43:40;-0.10;87.40
420;DHT22;42600;54.408;13.016;2023-02-26T06:46:07;-0.10;87.40
420;DHT22;42600;54.408;13.016;2023-02-26T06:48:34;0.00;87.10
420;DHT22;42600;54.408;13.016;2023-02-26T06:51:02;0.00;86.60
420;DHT22;42600;54.408;13.016;2023-02-26T06:53:29;0.00;86.80
420;DHT22;42600;54.408;13.016;2023-02-26T06:55:55;0.10;86.30
420;DHT22;42600;54.408;13.016;2023-02-26T06:58:22;0.20;85.90
420;DHT22;42600;54.408;13.016;2023-02-26T07:00:49;0.30;86.30
420;DHT22;42600;54.408;13.016;2023-02-26T07:03:17;0.30;86.20
420;DHT22;42600;54.408;13.016;2023-02-26T07:05:44;0.30;86.20
420;DHT22;42600;54.408;13.016;2023-02-26T07:08:13;0.40;85.60
420;DHT22;42600;54.408;13.016;2023-02-26T07:10:41;0.60;86.10
420;DHT22;42600;54.408;13.016;2023-02-26T07:13:08;0.60;85.90
420;DHT22;42600;54.408;13.016;2023-02-26T07:15:34;0.70;85.20
420;DHT22;42600;54.408;13.016;2023-02-26T07:18:01;0.70;85.20
420;DHT22;42600;54.408;13.016;2023-02-26T07:20:27;0.80;85.20
420;DHT22;42600;54.408;13.016;2023-02-26T07:22:54;0.90;84.90
420;DHT22;42600;54.408;13.016;2023-02-26T07:25:23;1.00;84.70
420;DHT22;42600;54.408;13.016;2023-02-26T07:27:50;1.00;84.50
420;DHT22;42600;54.408;13.016;2023-02-26T07:30:17;1.10;83.70
420;DHT22;42600;54.408;13.016;2023-02-26T07:32:43;1.10;83.00
420;DHT22;42600;54.408;13.016;2023-02-26T07:35:10;1.10;82.20
420;DHT22;42600;54.408;13.016;2023-02-26T07:37:37;1.10;82.10
420;DHT22;42600;54.408;13.016;2023-02-26T07:40:04;1.20;82.30
420;DHT22;42600;54.408;13.016;2023-02-26T07:42:32;1.20;81.90
420;DHT22;42600;54.408;13.016;2023-02-26T07:44:59;1.20;81.30
420;DHT22;42600;54.408;13.016;2023-02-26T07:47:26;1.30;80.70
420;DHT22;42600;54.408;13.016;2023-02-26T07:49:53;1.40;80.70
420;DHT22;42600;54.408;13.016;2023-02-26T07:52:20;1.40;80.60
420;DHT22;42600;54.408;13.016;2023-02-26T07:54:47;1.50;81.30
420;DHT22;42600;54.408;13.016;2023-02-26T07:57:13;1.50;81.60
420;DHT22;42600;54.408;13.016;2023-02-26T07:59:41;1.60;81.70
420;DHT22;42600;54.408;13.016;2023-02-26T08:02:09;1.60;82.20
420;DHT22;42600;54.408;13.016;2023-02-26T08:04:36;1.60;82.10
420;DHT22;42600;54.408;13.016;2023-02-26T08:07:03;1.60;82.40
420;DHT22;42600;54.408;13.016;2023-02-26T08:09:30;1.60;83.00
420;DHT22;42600;54.408;13.016;2023-02-26T08:11:56;1.60;83.30
420;DHT22;42600;54.408;13.016;2023-02-26T08:14:23;1.70;83.70
420;DHT22;42600;54.408;13.016;2023-02-26T08:16:51;1.70;84.00
420;DHT22;42600;54.408;13.016;2023-02-26T08:19:17;1.80;84.30
420;DHT22;42600;54.408;13.016;2023-02-26T08:21:45;1.80;85.10
420;DHT22;42600;54.408;13.016;2023-02-26T08:24:11;1.80;85.10
420;DHT22;42600;54.408;13.016;2023-02-26T08:26:38;1.90;84.80
420;DHT22;42600;54.408;13.016;2023-02-26T08:29:06;1.90;84.70
420;DHT22;42600;54.408;13.016;2023-02-26T08:31:33;1.90;85.00
420;DHT22;42600;54.408;13.016;2023-02-26T08:34:01;2.00;85.40
420;DHT22;42600;54.408;13.016;2023-02-26T08:36:28;2.10;85.10
420;DHT22;42600;54.408;13.016;2023-02-26T08:38:55;2.00;84.60
420;DHT22;42600;54.408;13.016;2023-02-26T08:41:21;2.10;84.90
420;DHT22;42600;54.408;13.016;2023-02-26T08:43:48;2.10;85.20
420;DHT22;42600;54.408;13.016;2023-02-26T08:46:15;2.20;85.00
420;DHT22;42600;54.408;13.016;2023-02-26T08:48:41;2.20;85.20
420;DHT22;42600;54.408;13.016;2023-02-26T08:51:09;2.20;85.10
420;DHT22;42600;54.408;13.016;2023-02-26T08:53:36;2.30;84.90
420;DHT22;42600;54.408;13.016;2023-02-26T08:56:04;2.30;84.40
420;DHT22;42600;54.408;13.016;2023-02-26T08:58:31;2.30;84.30
420;DHT22;42600;54.408;13.016;2023-02-26T09:00:57;2.30;84.70
420;DHT22;42600;54.408;13.016;2023-02-26T09:03:24;2.30;84.40
420;DHT22;42600;54.408;13.016;2023-02-26T09:05:51;2.20;84.00
420;DHT22;42600;54.408;13.016;2023-02-26T09:08:18;2.20;85.20
420;DHT22;42600;54.408;13.016;2023-02-26T09:10:46;2.20;85.70
420;DHT22;42600;54.408;13.016;2023-02-26T09:13:13;2.20;86.00
420;DHT22;42600;54.408;13.016;2023-02-26T09:15:40;2.20;86.00
420;DHT22;42600;54.408;13.016;2023-02-26T09:18:07;2.20;86.10
420;DHT22;42600;54.408;13.016;2023-02-26T09:20:39;2.20;85.80
420;DHT22;42600;54.408;13.016;2023-02-26T09:23:06;2.20;86.00
420;DHT22;42600;54.408;13.016;2023-02-26T09:25:34;2.20;85.40
420;DHT22;42600;54.408;13.016;2023-02-26T09:28:01;2.20;84.80
420;DHT22;42600;54.408;13.016;2023-02-26T09:30:28;2.30;85.80
420;DHT22;42600;54.408;13.016;2023-02-26T09:32:54;2.20;85.30
420;DHT22;42600;54.408;13.016;2023-02-26T09:35:21;2.20;85.80
420;DHT22;42600;54.408;13.016;2023-02-26T09:37:47;2.20;85.60
420;DHT22;42600;54.408;13.016;2023-02-26T09:40:22;2.20;85.30
420;DHT22;42600;54.408;13.016;2023-02-26T09:45:43;2.30;86.10
420;DHT22;42600;54.408;13.016;2023-02-26T09:48:14;2.40;85.30
420;DHT22;42600;54.408;13.016;2023-02-26T09:50:44;2.40;84.80
420;DHT22;42600;54.408;13.016;2023-02-26T09:53:15;2.40;84.60
420;DHT22;42600;54.408;13.016;2023-02-26T09:55:46;2.50;85.30
420;DHT22;42600;54.408;13.016;2023-02-26T09:58:18;2.60;85.30
420;DHT22;42600;54.408;13.016;2023-02-26T10:00:52;2.60;84.80
420;DHT22;42600;54.408;13.016;2023-02-26T10:03:26;2.60;84.40
420;DHT22;42600;54.408;13.016;2023-02-26T10:06:18;2.60;84.20
420;DHT22;42600;54.408;13.016;2023-02-26T10:09:00;2.60;84.40
420;DHT22;42600;54.408;13.016;2023-02-26T10:11:35;2.50;84.20
420;DHT22;42600;54.408;13.016;2023-02-26T10:14:11;2.30;84.30
420;DHT22;42600;54.408;13.016;2023-02-26T10:16:42;2.30;84.90
420;DHT22;42600;54.408;13.016;2023-02-26T10:19:13;2.20;84.50
420;DHT22;42600;54.408;13.016;2023-02-26T10:21:46;2.30;84.20
420;DHT22;42600;54.408;13.016;2023-02-26T10:24:18;2.40;84.60
420;DHT22;42600;54.408;13.016;2023-02-26T10:26:50;2.50;84.60
420;DHT22;42600;54.408;13.016;2023-02-26T10:29:23;2.50;84.80
420;DHT22;42600;54.408;13.016;2023-02-26T10:32:10;2.50;84.50
420;DHT22;42600;54.408;13.016;2023-02-26T10:34:46;2.50;84.40
420;DHT22;42600;54.408;13.016;2023-02-26T10:37:15;2.60;84.10
420;DHT22;42600;54.408;13.016;2023-02-26T10:39:47;2.60;84.00
420;DHT22;42600;54.408;13.016;2023-02-26T10:42:19;2.70;85.10
420;DHT22;42600;54.408;13.016;2023-02-26T10:44:55;2.70;84.30
420;DHT22;42600;54.408;13.016;2023-02-26T10:47:31;2.70;85.20
420;DHT22;42600;54.408;13.016;2023-02-26T10:50:02;2.70;84.00
420;DHT22;42600;54.408;13.016;2023-02-26T10:52:32;2.70;83.80
420;DHT22;42600;54.408;13.016;2023-02-26T10:55:22;2.70;84.40
420;DHT22;42600;54.408;13.016;2023-02-26T10:57:52;2.70;83.80
420;DHT22;42600;54.408;13.016;2023-02-26T11:00:21;2.60;84.00
420;DHT22;42600;54.408;13.016;2023-02-26T11:02:50;2.60;85.60
420;DHT22;42600;54.408;13.016;2023-02-26T11:05:20;2.70;84.20
420;DHT22;42600;54.408;13.016;2023-02-26T11:07:51;2.70;83.70
420;DHT22;42600;54.408;13.016;2023-02-26T11:10:21;2.70;84.30
420;DHT22;42600;54.408;13.016;2023-02-26T11:12:49;2.70;85.70
420;DHT22;42600;54.408;13.016;2023-02-26T11:15:18;2.70;84.50
420;DHT22;42600;54.408;13.016;2023-02-26T11:17:47;2.80;85.00
420;DHT22;42600;54.408;13.016;2023-02-26T11:20:18;2.80;84.60
420;DHT22;42600;54.408;13.016;2023-02-26T11:22:51;2.80;83.10
420;DHT22;42600;54.408;13.016;2023-02-26T11:25:23;2.80;83.70
420;DHT22;42600;54.408;13.016;2023-02-26T11:27:56;2.80;84.10
420;DHT22;42600;54.408;13.016;2023-02-26T11:30:25;2.90;84.40
420;DHT22;42600;54.408;13.016;2023-02-26T11:32:57;2.80;83.60
420;DHT22;42600;54.408;13.016;2023-02-26T11:35:25;2.80;84.20
420;DHT22;42600;54.408;13.016;2023-02-26T11:37:54;2.80;84.00
420;DHT22;42600;54.408;13.016;2023-02-26T11:40:31;2.80;83.40
420;DHT22;42600;54.408;13.016;2023-02-26T11:43:02;2.90;84.90
420;DHT22;42600;54.408;13.016;2023-02-26T11:45:30;3.00;84.40
420;DHT22;42600;54.408;13.016;2023-02-26T11:48:03;2.90;83.70
420;DHT22;42600;54.408;13.016;2023-02-26T11:50:35;2.90;84.60
420;DHT22;42600;54.408;13.016;2023-02-26T11:53:05;2.80;84.70
420;DHT22;42600;54.408;13.016;2023-02-26T11:55:36;2.90;85.60
420;DHT22;42600;54.408;13.016;2023-02-26T11:58:16;3.00;85.60
420;DHT22;42600;54.408;13.016;2023-02-26T12:00:43;3.00;85.10
420;DHT22;42600;54.408;13.016;2023-02-26T12:03:17;3.00;84.40
420;DHT22;42600;54.408;13.016;2023-02-26T12:05:44;3.00;83.90
420;DHT22;42600;54.408;13.016;2023-02-26T12:08:16;3.00;84.30
420;DHT22;42600;54.408;13.016;2023-02-26T12:10:50;3.00;83.70
420;DHT22;42600;54.408;13.016;2023-02-26T12:13:23;3.00;83.30
420;DHT22;42600;54.408;13.016;2023-02-26T12:15:56;3.00;83.00
420;DHT22;42600;54.408;13.016;2023-02-26T12:18:40;3.00;82.60
420;DHT22;42600;54.408;13.016;2023-02-26T12:21:22;2.90;82.40
420;DHT22;42600;54.408;13.016;2023-02-26T12:24:12;2.90;81.50
420;DHT22;42600;54.408;13.016;2023-02-26T12:26:48;2.90;82.80
420;DHT22;42600;54.408;13.016;2023-02-26T12:29:40;3.00;83.30
420;DHT22;42600;54.408;13.016;2023-02-26T12:32:31;3.10;83.00
420;DHT22;42600;54.408;13.016;2023-02-26T12:35:35;3.10;83.60
420;DHT22;42600;54.408;13.016;2023-02-26T12:38:15;3.00;83.40
420;DHT22;42600;54.408;13.016;2023-02-26T12:40:58;3.00;83.40
420;DHT22;42600;54.408;13.016;2023-02-26T12:43:33;3.10;84.60
420;DHT22;42600;54.408;13.016;2023-02-26T12:46:10;3.10;84.70
420;DHT22;42600;54.408;13.016;2023-02-26T12:51:55;3.20;84.40
420;DHT22;42600;54.408;13.016;2023-02-26T12:54:36;3.20;84.50
420;DHT22;42600;54.408;13.016;2023-02-26T12:57:29;3.20;83.80
420;DHT22;42600;54.408;13.016;2023-02-26T13:03:22;3.10;83.80
420;DHT22;42600;54.408;13.016;2023-02-26T13:08:47;3.30;85.10
420;DHT22;42600;54.408;13.016;2023-02-26T13:11:27;3.20;84.00
420;DHT22;42600;54.408;13.016;2023-02-26T13:14:09;3.20;83.50
420;DHT22;42600;54.408;13.016;2023-02-26T13:16:48;3.20;83.90
420;DHT22;42600;54.408;13.016;2023-02-26T13:19:24;3.10;83.70
420;DHT22;42600;54.408;13.016;2023-02-26T13:21:57;3.00;84.20
420;DHT22;42600;54.408;13.016;2023-02-26T13:24:32;3.20;84.40
420;DHT22;42600;54.408;13.016;2023-02-26T13:27:00;3.10;83.40
420;DHT22;42600;54.408;13.016;2023-02-26T13:29:33;3.10;84.10
420;DHT22;42600;54.408;13.016;2023-02-26T13:32:04;3.10;84.60
420;DHT22;42600;54.408;13.016;2023-02-26T13:34:41;3.20;85.60
420;DHT22;42600;54.408;13.016;2023-02-26T13:37:17;3.10;85.40
420;DHT22;42600;54.408;13.016;2023-02-26T13:39:54;3.10;85.40
420;DHT22;42600;54.408;13.016;2023-02-26T13:42:28;3.20;86.90
420;DHT22;42600;54.408;13.016;2023-02-26T13:45:10;3.20;86.10
420;DHT22;42600;54.408;13.016;2023-02-26T13:47:55;3.20;85.50
420;DHT22;42600;54.408;13.016;2023-02-26T13:50:28;3.30;85.50
420;DHT22;42600;54.408;13.016;2023-02-26T13:53:01;3.20;85.50
420;DHT22;42600;54.408;13.016;2023-02-26T13:55:40;3.10;85.10
420;DHT22;42600;54.408;13.016;2023-02-26T13:58:28;3.00;85.10
420;DHT22;42600;54.408;13.016;2023-02-26T14:01:03;3.00;85.80
420;DHT22;42600;54.408;13.016;2023-02-26T14:03:32;3.00;86.40
420;DHT22;42600;54.408;13.016;2023-02-26T14:08:51;3.10;86.90
420;DHT22;42600;54.408;13.016;2023-02-26T14:11:43;3.10;87.50
420;DHT22;42600;54.408;13.016;2023-02-26T14:14:14;3.20;88.00
420;DHT22;42600;54.408;13.016;2023-02-26T14:16:43;3.30;87.50
420;DHT22;42600;54.408;13.016;2023-02-26T14:19:24;3.10;86.10
420;DHT22;42600;54.408;13.016;2023-02-26T14:21:52;3.30;87.40
420;DHT22;42600;54.408;13.016;2023-02-26T14:24:28;3.20;86.70
420;DHT22;42600;54.408;13.016;2023-02-26T14:27:21;3.00;86.90
420;DHT22;42600;54.408;13.016;2023-02-26T14:30:02;3.20;88.40
420;DHT22;42600;54.408;13.016;2023-02-26T14:32:31;3.20;87.00
420;DHT22;42600;54.408;13.016;2023-02-26T14:35:04;3.20;85.30
420;DHT22;42600;54.408;13.016;2023-02-26T14:37:33;3.00;85.20
420;DHT22;42600;54.408;13.016;2023-02-26T14:40:05;3.00;85.80
420;DHT22;42600;54.408;13.016;2023-02-26T14:42:40;3.10;87.80
420;DHT22;42600;54.408;13.016;2023-02-26T14:45:16;3.10;86.90
420;DHT22;42600;54.408;13.016;2023-02-26T14:47:44;3.20;87.80
420;DHT22;42600;54.408;13.016;2023-02-26T14:50:14;3.20;86.90
420;DHT22;42600;54.408;13.016;2023-02-26T14:52:53;3.10;86.00
420;DHT22;42600;54.408;13.016;2023-02-26T14:55:58;3.10;86.60
420;DHT22;42600;54.408;13.016;2023-02-26T14:58:38;3.10;86.40
420;DHT22;42600;54.408;13.016;2023-02-26T15:01:19;3.00;85.90
420;DHT22;42600;54.408;13.016;2023-02-26T15:04:13;3.00;86.50
420;DHT22;42600;54.408;13.016;2023-02-26T15:06:53;3.00;87.30
420;DHT22;42600;54.408;13.016;2023-02-26T15:09:30;3.00;88.00
420;DHT22;42600;54.408;13.016;2023-02-26T15:12:14;3.00;88.10
420;DHT22;42600;54.408;13.016;2023-02-26T15:15:05;3.00;88.10
420;DHT22;42600;54.408;13.016;2023-02-26T15:17:47;3.10;87.10
420;DHT22;42600;54.408;13.016;2023-02-26T15:20:21;3.00;87.10
420;DHT22;42600;54.408;13.016;2023-02-26T15:23:09;3.00;88.10
420;DHT22;42600;54.408;13.016;2023-02-26T15:25:40;3.10;88.00
420;DHT22;42600;54.408;13.016;2023-02-26T15:28:12;3.00;87.20
420;DHT22;42600;54.408;13.016;2023-02-26T15:30:42;3.00;87.90
420;DHT22;42600;54.408;13.016;2023-02-26T15:33:13;3.10;88.90
420;DHT22;42600;54.408;13.016;2023-02-26T15:35:43;3.10;88.70
420;DHT22;42600;54.408;13.016;2023-02-26T15:38:10;3.00;87.90
420;DHT22;42600;54.408;13.016;2023-02-26T15:40:37;3.00;88.20
420;DHT22;42600;54.408;13.016;2023-02-26T15:43:05;2.90;88.00
420;DHT22;42600;54.408;13.016;2023-02-26T15:45:34;2.80;88.10
420;DHT22;42600;54.408;13.016;2023-02-26T15:48:04;3.00;88.50
420;DHT22;42600;54.408;13.016;2023-02-26T15:50:35;2.90;88.90
420;DHT22;42600;54.408;13.016;2023-02-26T15:53:03;2.90;89.60
420;DHT22;42600;54.408;13.016;2023-02-26T15:55:34;2.90;90.00
420;DHT22;42600;54.408;13.016;2023-02-26T15:58:02;3.00;90.90
420;DHT22;42600;54.408;13.016;2023-02-26T16:00:31;3.10;91.50
420;DHT22;42600;54.408;13.016;2023-02-26T16:02:59;3.10;91.80
420;DHT22;42600;54.408;13.016;2023-02-26T16:05:28;3.00;91.50
420;DHT22;42600;54.408;13.016;2023-02-26T16:07:55;3.10;92.40
420;DHT22;42600;54.408;13.016;2023-02-26T16:10:28;3.10;92.50
420;DHT22;42600;54.408;13.016;2023-02-26T16:12:58;3.10;92.30
420;DHT22;42600;54.408;13.016;2023-02-26T16:15:29;3.00;92.60
420;DHT22;42600;54.408;13.016;2023-02-26T16:17:57;3.00;92.30
420;DHT22;42600;54.408;13.016;2023-02-26T16:20:28;2.80;91.90
420;DHT22;42600;54.408;13.016;2023-02-26T16:23:01;2.80;92.40
420;DHT22;42600;54.408;13.016;2023-02-26T16:25:30;2.80;92.70
420;DHT22;42600;54.408;13.016;2023-02-26T16:28:00;2.80;92.70
420;DHT22;42600;54.408;13.016;2023-02-26T16:30:30;2.60;92.50
420;DHT22;42600;54.408;13.016;2023-02-26T16:32:58;2.50;92.70
420;DHT22;42600;54.408;13.016;2023-02-26T16:35:30;2.40;92.70
420;DHT22;42600;54.408;13.016;2023-02-26T16:37:59;2.20;92.70
420;DHT22;42600;54.408;13.016;2023-02-26T16:40:34;2.00;92.70